createdAt,value
2024-05-09T00:00:00.128Z,53.00
2024-05-09T00:00:36.276Z,52.00
2024-05-09T00:01:10.172Z,52.33
2024-05-09T00:01:40.848Z,53.00
2024-05-09T00:02:11.511Z,52.00
2024-05-09T00:02:42.153Z,52.33
2024-05-09T00:03:12.905Z,54.67
2024-05-09T00:03:43.698Z,57.00
2024-05-09T00:04:14.360Z,57.33
2024-05-09T00:04:45.072Z,57.33
2024-05-09T00:05:15.835Z,59.00
2024-05-09T00:05:46.514Z,62.00
2024-05-09T00:06:17.078Z,64.33
2024-05-09T00:06:48.710Z,64.00
2024-05-09T00:07:19.307Z,61.67
2024-05-09T00:07:49.853Z,60.67
2024-05-09T00:08:20.494Z,59.00
2024-05-09T00:08:51.110Z,53.67
2024-05-09T00:09:21.758Z,45.67
2024-05-09T00:09:52.276Z,40.67
2024-05-09T00:10:29.299Z,40.33
2024-05-09T00:11:06.311Z,41.00
2024-05-09T00:11:37.051Z,41.00
2024-05-09T00:12:07.956Z,42.00
2024-05-09T00:12:39.352Z,43.67
2024-05-09T00:13:10.594Z,44.00
2024-05-09T00:13:41.682Z,44.00
2024-05-09T00:14:12.211Z,44.00
2024-05-09T00:14:43.705Z,44.00
2024-05-09T00:15:14.383Z,47.33
2024-05-09T00:15:44.942Z,51.00
2024-05-09T00:16:15.669Z,51.00
2024-05-09T00:16:47.599Z,50.67
2024-05-09T00:17:18.271Z,46.00
2024-05-09T00:17:48.998Z,41.00
2024-05-09T00:18:19.706Z,38.00
2024-05-09T00:18:50.512Z,36.33
2024-05-09T00:19:21.219Z,37.00
2024-05-09T00:19:51.887Z,38.00
2024-05-09T00:20:28.529Z,38.33
2024-05-09T00:21:08.182Z,38.00
2024-05-09T00:21:44.598Z,35.67
2024-05-09T00:22:15.126Z,32.33
2024-05-09T00:22:45.736Z,36.00
2024-05-09T00:23:16.477Z,44.00
2024-05-09T00:23:47.171Z,44.00
2024-05-09T00:24:17.725Z,42.33
2024-05-09T00:24:48.280Z,37.67
2024-05-09T00:25:19.196Z,36.00
2024-05-09T00:25:49.909Z,33.00
2024-05-09T00:26:23.336Z,28.67
2024-05-09T00:26:53.897Z,25.00
2024-05-09T00:27:24.520Z,23.00
2024-05-09T00:27:55.057Z,22.00
2024-05-09T00:28:25.596Z,22.67
2024-05-09T00:28:56.318Z,23.00
2024-05-09T00:29:26.920Z,22.33
2024-05-09T00:29:57.508Z,21.33
2024-05-09T00:30:33.961Z,20.33
2024-05-09T00:31:06.798Z,19.00
2024-05-09T00:31:37.335Z,19.33
2024-05-09T00:32:08.072Z,20.00
2024-05-09T00:32:38.894Z,19.67
2024-05-09T00:33:10.835Z,19.00
2024-05-09T00:33:42.387Z,18.00
2024-05-09T00:34:13.228Z,17.33
2024-05-09T00:34:44.709Z,16.33
2024-05-09T00:35:15.320Z,15.00
2024-05-09T00:35:45.973Z,14.00
2024-05-09T00:36:16.493Z,13.33
2024-05-09T00:36:47.018Z,13.00
2024-05-09T00:37:17.834Z,12.33
2024-05-09T00:37:48.421Z,12.00
2024-05-09T00:38:18.986Z,12.00
2024-05-09T00:38:49.591Z,12.00
2024-05-09T00:39:20.114Z,12.00
2024-05-09T00:39:50.678Z,12.00
2024-05-09T00:40:30.828Z,12.00
2024-05-09T00:41:08.851Z,12.00
2024-05-09T00:41:39.610Z,12.00
2024-05-09T00:42:10.210Z,12.00
2024-05-09T00:42:40.732Z,12.00
2024-05-09T00:43:12.526Z,12.00
2024-05-09T00:43:44.166Z,12.00
2024-05-09T00:44:14.824Z,12.00
2024-05-09T00:44:45.474Z,12.00
2024-05-09T00:45:15.999Z,12.00
2024-05-09T00:45:48.076Z,12.00
2024-05-09T00:46:19.670Z,12.00
2024-05-09T00:46:53.545Z,12.00
2024-05-09T00:47:24.271Z,12.00
2024-05-09T00:47:55.446Z,12.00
2024-05-09T00:48:57.649Z,12.00
2024-05-09T00:49:28.853Z,12.00
2024-05-09T00:50:01.011Z,12.00
2024-05-09T00:51:04.471Z,13.00
2024-05-09T00:51:35.158Z,13.00
2024-05-09T00:52:05.782Z,13.33
2024-05-09T00:52:36.378Z,14.33
2024-05-09T00:53:08.972Z,15.00
2024-05-09T00:53:39.822Z,15.00
2024-05-09T00:54:10.402Z,15.00
2024-05-09T00:54:40.979Z,15.00
2024-05-09T00:55:12.357Z,16.00
2024-05-09T00:55:43.230Z,17.00
2024-05-09T00:56:15.778Z,20.00
2024-05-09T00:56:48.635Z,21.67
2024-05-09T00:57:19.399Z,22.00
2024-05-09T00:57:50.257Z,22.00
2024-05-09T00:58:23.193Z,22.00
2024-05-09T00:58:54.012Z,22.00
2024-05-09T00:59:25.014Z,22.00
2024-05-09T00:59:55.721Z,22.00
2024-05-09T01:00:32.088Z,22.00
2024-05-09T01:01:09.684Z,22.00
2024-05-09T01:01:41.932Z,22.00
2024-05-09T01:02:13.502Z,22.00
2024-05-09T01:02:44.177Z,21.67
2024-05-09T01:03:15.086Z,22.00
2024-05-09T01:03:48.714Z,22.00
2024-05-09T01:04:21.044Z,21.33
2024-05-09T01:04:52.196Z,21.00
2024-05-09T01:05:22.864Z,21.00
2024-05-09T01:05:53.576Z,21.67
2024-05-09T01:06:24.312Z,22.33
2024-05-09T01:06:54.934Z,26.00
2024-05-09T01:07:25.459Z,30.00
2024-05-09T01:07:56.074Z,30.33
2024-05-09T01:08:26.707Z,31.00
2024-05-09T01:08:57.234Z,31.67
2024-05-09T01:09:27.759Z,30.67
2024-05-09T01:09:58.316Z,30.00
2024-05-09T01:10:34.154Z,29.00
2024-05-09T01:11:06.687Z,29.00
2024-05-09T01:11:38.186Z,28.33
2024-05-09T01:12:09.038Z,27.67
2024-05-09T01:12:39.694Z,26.33
2024-05-09T01:13:10.335Z,26.00
2024-05-09T01:13:40.872Z,26.00
2024-05-09T01:14:11.450Z,28.67
2024-05-09T01:14:42.000Z,30.00
2024-05-09T01:15:12.665Z,29.33
2024-05-09T01:15:43.363Z,29.33
2024-05-09T01:16:13.975Z,30.00
2024-05-09T01:16:44.668Z,32.00
2024-05-09T01:17:15.445Z,35.33
2024-05-09T01:17:46.366Z,35.67
2024-05-09T01:18:17.234Z,35.00
2024-05-09T01:18:47.981Z,35.33
2024-05-09T01:19:28.405Z,36.67
2024-05-09T01:19:59.010Z,38.00
2024-05-09T01:20:37.521Z,37.00
2024-05-09T01:21:12.622Z,36.00
2024-05-09T01:21:43.196Z,35.00
2024-05-09T01:22:13.754Z,35.33
2024-05-09T01:22:44.362Z,35.33
2024-05-09T01:23:16.338Z,35.00
2024-05-09T01:23:47.290Z,34.00
2024-05-09T01:24:17.844Z,32.00
2024-05-09T01:24:48.645Z,30.33
2024-05-09T01:25:19.197Z,30.00
2024-05-09T01:25:49.794Z,30.00
2024-05-09T01:26:20.475Z,28.00
2024-05-09T01:26:51.065Z,25.33
2024-05-09T01:27:21.596Z,23.00
2024-05-09T01:27:52.116Z,20.67
2024-05-09T01:28:22.656Z,19.33
2024-05-09T01:28:53.299Z,18.67
2024-05-09T01:29:23.984Z,18.00
2024-05-09T01:29:54.649Z,18.00
2024-05-09T01:30:31.926Z,18.67
2024-05-09T01:31:05.760Z,19.00
2024-05-09T01:31:36.285Z,18.00
2024-05-09T01:32:06.897Z,17.33
2024-05-09T01:32:37.572Z,17.00
2024-05-09T01:33:10.486Z,17.00
2024-05-09T01:33:42.676Z,16.33
2024-05-09T01:34:13.483Z,16.00
2024-05-09T01:34:44.081Z,16.00
2024-05-09T01:35:14.678Z,16.00
2024-05-09T01:35:45.283Z,16.00
2024-05-09T01:36:15.824Z,16.00
2024-05-09T01:36:46.483Z,16.00
2024-05-09T01:37:17.001Z,16.67
2024-05-09T01:37:48.031Z,17.67
2024-05-09T01:38:18.747Z,18.67
2024-05-09T01:38:49.322Z,19.00
2024-05-09T01:39:19.850Z,19.00
2024-05-09T01:39:50.395Z,19.67
2024-05-09T01:40:28.559Z,20.00
2024-05-09T01:41:04.677Z,20.00
2024-05-09T01:41:35.213Z,19.00
2024-05-09T01:42:05.768Z,18.67
2024-05-09T01:42:36.284Z,18.67
2024-05-09T01:43:07.470Z,19.33
2024-05-09T01:43:38.617Z,20.00
2024-05-09T01:44:09.544Z,20.00
2024-05-09T01:44:40.158Z,20.00
2024-05-09T01:45:11.308Z,20.00
2024-05-09T01:45:41.950Z,19.00
2024-05-09T01:46:15.878Z,18.67
2024-05-09T01:46:46.473Z,18.00
2024-05-09T01:47:17.221Z,17.00
2024-05-09T01:47:48.152Z,17.00
2024-05-09T01:48:18.902Z,17.00
2024-05-09T01:48:49.695Z,17.00
2024-05-09T01:49:20.504Z,17.00
2024-05-09T01:49:51.415Z,17.00
2024-05-09T01:50:33.246Z,17.00
2024-05-09T01:51:08.741Z,16.67
2024-05-09T01:51:39.468Z,17.00
2024-05-09T01:52:10.003Z,17.00
2024-05-09T01:52:40.546Z,17.00
2024-05-09T01:53:13.181Z,17.00
2024-05-09T01:53:44.628Z,18.00
2024-05-09T01:54:15.164Z,19.00
2024-05-09T01:54:45.683Z,19.00
2024-05-09T01:55:16.352Z,20.00
2024-05-09T01:55:46.949Z,20.00
2024-05-09T01:56:17.643Z,19.33
2024-05-09T01:56:48.255Z,19.00
2024-05-09T01:57:18.794Z,18.00
2024-05-09T01:57:49.332Z,18.00
2024-05-09T01:58:19.902Z,17.00
2024-05-09T01:58:50.434Z,16.67
2024-05-09T01:59:21.134Z,15.67
2024-05-09T01:59:51.703Z,15.00
2024-05-09T02:00:34.489Z,14.00
2024-05-09T02:01:10.292Z,14.00
2024-05-09T02:01:56.120Z,14.00
2024-05-09T02:02:29.340Z,14.00
2024-05-09T02:03:00.226Z,14.00
2024-05-09T02:03:31.053Z,14.00
2024-05-09T02:04:02.104Z,13.67
2024-05-09T02:04:32.898Z,13.00
2024-05-09T02:05:03.808Z,13.00
2024-05-09T02:05:34.602Z,13.33
2024-05-09T02:06:05.588Z,14.00
2024-05-09T02:06:40.523Z,14.00
2024-05-09T02:07:11.080Z,14.00
2024-05-09T02:07:41.721Z,14.00
2024-05-09T02:08:15.986Z,14.00
2024-05-09T02:08:46.807Z,14.00
2024-05-09T02:09:17.337Z,14.00
2024-05-09T02:09:50.409Z,14.00
2024-05-09T02:10:26.361Z,14.00
2024-05-09T02:11:02.763Z,14.00
2024-05-09T02:11:43.249Z,14.00
2024-05-09T02:12:13.917Z,14.00
2024-05-09T02:12:44.654Z,13.67
2024-05-09T02:13:15.514Z,13.00
2024-05-09T02:13:46.218Z,13.00
2024-05-09T02:14:17.259Z,13.00
2024-05-09T02:14:47.793Z,13.00
2024-05-09T02:15:18.327Z,13.00
2024-05-09T02:15:51.151Z,13.00
2024-05-09T02:16:21.694Z,13.00
2024-05-09T02:16:52.287Z,13.00
2024-05-09T02:17:23.099Z,13.00
2024-05-09T02:17:54.085Z,12.00
2024-05-09T02:18:24.943Z,12.00
2024-05-09T02:18:55.588Z,12.00
2024-05-09T02:19:26.151Z,12.00
2024-05-09T02:19:56.745Z,12.00
2024-05-09T02:20:34.142Z,12.00
2024-05-09T02:21:07.727Z,11.33
2024-05-09T02:21:39.281Z,12.00
2024-05-09T02:22:09.800Z,12.00
2024-05-09T02:22:40.362Z,12.67
2024-05-09T02:23:11.317Z,13.00
2024-05-09T02:23:42.068Z,13.00
2024-05-09T02:24:12.633Z,13.00
2024-05-09T02:24:43.165Z,13.00
2024-05-09T02:25:13.710Z,13.00
2024-05-09T02:25:44.280Z,12.00
2024-05-09T02:26:14.840Z,12.00
2024-05-09T02:26:45.383Z,12.00
2024-05-09T02:27:15.917Z,12.00
2024-05-09T02:27:46.542Z,12.00
2024-05-09T02:28:19.290Z,13.00
2024-05-09T02:28:49.888Z,20.33
2024-05-09T02:29:20.505Z,36.33
2024-05-09T02:29:51.130Z,37.33
2024-05-09T02:30:30.009Z,35.67
2024-05-09T02:31:12.122Z,30.33
2024-05-09T02:31:43.240Z,29.33
2024-05-09T02:32:14.040Z,28.67
2024-05-09T02:32:44.784Z,27.67
2024-05-09T02:33:15.541Z,26.67
2024-05-09T02:33:46.266Z,25.67
2024-05-09T02:34:17.043Z,24.33
2024-05-09T02:34:47.657Z,23.33
2024-05-09T02:35:18.271Z,21.67
2024-05-09T02:35:48.825Z,21.00
2024-05-09T02:36:19.363Z,19.67
2024-05-09T02:36:49.930Z,18.33
2024-05-09T02:37:20.466Z,17.33
2024-05-09T02:37:51.036Z,16.33
2024-05-09T02:38:21.781Z,16.00
2024-05-09T02:38:52.334Z,16.00
2024-05-09T02:39:22.913Z,17.33
2024-05-09T02:39:53.442Z,18.33
2024-05-09T02:40:33.201Z,21.33
2024-05-09T02:41:08.928Z,26.00
2024-05-09T02:41:39.544Z,26.00
2024-05-09T02:42:10.128Z,25.67
2024-05-09T02:42:40.642Z,25.00
2024-05-09T02:43:12.202Z,25.33
2024-05-09T02:43:43.423Z,28.00
2024-05-09T02:44:14.004Z,30.00
2024-05-09T02:44:44.622Z,30.33
2024-05-09T02:45:15.147Z,30.33
2024-05-09T02:45:45.696Z,30.33
2024-05-09T02:46:16.220Z,32.33
2024-05-09T02:46:46.796Z,35.67
2024-05-09T02:47:17.520Z,35.33
2024-05-09T02:47:48.567Z,37.67
2024-05-09T02:48:19.450Z,56.33
2024-05-09T02:48:50.308Z,72.67
2024-05-09T02:49:20.969Z,70.67
2024-05-09T02:49:51.759Z,60.00
2024-05-09T02:50:29.974Z,52.00
2024-05-09T02:51:07.482Z,48.33
2024-05-09T02:51:38.022Z,46.67
2024-05-09T02:52:08.549Z,45.00
2024-05-09T02:52:39.067Z,41.67
2024-05-09T02:53:10.404Z,37.00
2024-05-09T02:53:41.173Z,32.33
2024-05-09T02:54:12.087Z,30.33
2024-05-09T02:54:42.710Z,30.00
2024-05-09T02:55:14.243Z,30.00
2024-05-09T02:55:44.892Z,29.33
2024-05-09T02:56:15.552Z,28.33
2024-05-09T02:56:47.114Z,27.67
2024-05-09T02:57:17.673Z,26.67
2024-05-09T02:57:48.207Z,25.33
2024-05-09T02:58:18.730Z,23.67
2024-05-09T02:58:49.294Z,22.00
2024-05-09T02:59:19.887Z,19.67
2024-05-09T02:59:50.844Z,17.33
2024-05-09T03:00:26.479Z,16.33
2024-05-09T03:01:05.145Z,16.00
2024-05-09T03:01:35.799Z,15.67
2024-05-09T03:02:06.805Z,16.00
2024-05-09T03:02:37.571Z,16.00
2024-05-09T03:03:14.197Z,16.67
2024-05-09T03:03:47.426Z,17.00
2024-05-09T03:04:18.058Z,18.33
2024-05-09T03:04:48.805Z,19.67
2024-05-09T03:05:19.556Z,21.33
2024-05-09T03:05:50.152Z,23.00
2024-05-09T03:06:20.692Z,26.00
2024-05-09T03:06:51.218Z,30.67
2024-05-09T03:07:21.807Z,34.67
2024-05-09T03:07:52.394Z,34.00
2024-05-09T03:08:22.952Z,34.00
2024-05-09T03:08:53.485Z,33.33
2024-05-09T03:09:24.031Z,33.00
2024-05-09T03:09:54.591Z,33.00
2024-05-09T03:10:28.657Z,34.33
2024-05-09T03:10:59.871Z,35.33
2024-05-09T03:11:30.559Z,34.33
2024-05-09T03:12:01.304Z,32.67
2024-05-09T03:12:31.937Z,31.33
2024-05-09T03:13:06.149Z,30.00
2024-05-09T03:13:38.861Z,30.00
2024-05-09T03:14:09.440Z,30.00
2024-05-09T03:14:40.048Z,31.00
2024-05-09T03:15:10.635Z,31.00
2024-05-09T03:15:41.351Z,31.00
2024-05-09T03:16:11.935Z,30.33
2024-05-09T03:16:42.533Z,30.00
2024-05-09T03:17:13.075Z,30.00
2024-05-09T03:17:44.089Z,29.00
2024-05-09T03:18:16.286Z,29.00
2024-05-09T03:18:46.977Z,29.00
2024-05-09T03:19:17.686Z,29.00
2024-05-09T03:19:48.564Z,29.00
2024-05-09T03:20:23.938Z,29.00
2024-05-09T03:20:58.250Z,29.00
2024-05-09T03:21:28.835Z,29.00
2024-05-09T03:21:59.376Z,29.00
2024-05-09T03:22:29.926Z,29.00
2024-05-09T03:23:00.489Z,29.00
2024-05-09T03:23:31.117Z,28.33
2024-05-09T03:24:01.675Z,28.67
2024-05-09T03:24:32.298Z,32.33
2024-05-09T03:25:02.939Z,41.67
2024-05-09T03:25:33.642Z,44.00
2024-05-09T03:26:08.596Z,46.67
2024-05-09T03:26:40.045Z,53.33
2024-05-09T03:27:10.949Z,54.67
2024-05-09T03:27:42.853Z,58.33
2024-05-09T03:28:13.387Z,56.00
2024-05-09T03:28:44.439Z,54.33
2024-05-09T03:29:15.220Z,53.00
2024-05-09T03:29:45.787Z,50.67
2024-05-09T03:30:28.874Z,49.00
2024-05-09T03:31:06.911Z,47.00
2024-05-09T03:31:37.860Z,47.67
2024-05-09T03:32:09.035Z,48.00
2024-05-09T03:32:39.777Z,47.67
2024-05-09T03:33:11.257Z,47.00
2024-05-09T03:33:42.209Z,46.67
2024-05-09T03:34:12.973Z,46.00
2024-05-09T03:34:43.622Z,46.00
2024-05-09T03:35:15.720Z,45.00
2024-05-09T03:35:47.391Z,45.00
2024-05-09T03:36:18.058Z,45.00
2024-05-09T03:36:48.631Z,48.67
2024-05-09T03:37:19.298Z,59.33
2024-05-09T03:37:49.901Z,66.00
2024-05-09T03:38:20.508Z,69.33
2024-05-09T03:38:51.072Z,68.33
2024-05-09T03:39:21.632Z,67.00
2024-05-09T03:39:52.200Z,64.33
2024-05-09T03:40:26.551Z,63.33
2024-05-09T03:40:59.720Z,64.00
2024-05-09T03:41:30.447Z,62.67
2024-05-09T03:42:01.486Z,70.33
2024-05-09T03:42:32.049Z,162.33
2024-05-09T03:43:02.641Z,182.00
2024-05-09T03:43:33.164Z,155.33
2024-05-09T03:44:03.715Z,140.67
2024-05-09T03:44:34.391Z,151.67
2024-05-09T03:45:05.104Z,167.33
2024-05-09T03:45:35.639Z,151.33
2024-05-09T03:46:06.170Z,126.00
2024-05-09T03:46:37.442Z,123.00
2024-05-09T03:47:08.327Z,117.33
2024-05-09T03:47:39.118Z,111.67
2024-05-09T03:48:09.992Z,109.00
2024-05-09T03:48:40.774Z,109.67
2024-05-09T03:49:11.697Z,114.67
2024-05-09T03:49:42.492Z,117.67
2024-05-09T03:50:21.933Z,145.67
2024-05-09T03:50:56.532Z,140.00
2024-05-09T03:51:27.216Z,142.00
2024-05-09T03:51:57.798Z,183.33
2024-05-09T03:52:28.320Z,234.00
2024-05-09T03:52:58.916Z,217.00
2024-05-09T03:53:29.493Z,194.67
2024-05-09T03:54:00.057Z,236.33
2024-05-09T03:54:34.018Z,249.33
2024-05-09T03:55:04.734Z,216.00
2024-05-09T03:55:35.387Z,209.33
2024-05-09T03:56:08.708Z,246.00
2024-05-09T03:56:39.341Z,272.67
2024-05-09T03:57:09.883Z,238.33
2024-05-09T03:57:40.405Z,202.00
2024-05-09T03:58:13.246Z,187.33
2024-05-09T03:58:43.794Z,181.33
2024-05-09T03:59:14.353Z,174.33
2024-05-09T03:59:44.985Z,190.33
2024-05-09T04:00:22.088Z,207.33
2024-05-09T04:00:57.464Z,190.67
2024-05-09T04:01:28.880Z,189.33
2024-05-09T04:01:59.657Z,188.00
2024-05-09T04:02:30.427Z,197.67
2024-05-09T04:03:01.362Z,192.33
2024-05-09T04:03:33.006Z,190.33
2024-05-09T04:04:03.712Z,189.00
2024-05-09T04:04:34.346Z,188.00
2024-05-09T04:05:04.990Z,187.33
2024-05-09T04:05:36.836Z,186.00
2024-05-09T04:06:07.477Z,178.00
2024-05-09T04:06:37.995Z,177.00
2024-05-09T04:07:08.547Z,179.33
2024-05-09T04:07:41.722Z,180.33
2024-05-09T04:08:13.505Z,174.33
2024-05-09T04:08:44.160Z,140.67
2024-05-09T04:09:14.711Z,111.33
2024-05-09T04:09:45.231Z,95.00
2024-05-09T04:10:24.027Z,94.00
2024-05-09T04:11:01.611Z,120.33
2024-05-09T04:11:32.452Z,104.00
2024-05-09T04:12:05.637Z,88.00
2024-05-09T04:12:36.617Z,81.67
2024-05-09T04:13:08.285Z,87.33
2024-05-09T04:13:38.860Z,91.00
2024-05-09T04:14:09.438Z,96.67
2024-05-09T04:14:41.821Z,99.67
2024-05-09T04:15:13.600Z,98.00
2024-05-09T04:15:45.318Z,89.67
2024-05-09T04:16:15.838Z,95.67
2024-05-09T04:16:46.405Z,112.00
2024-05-09T04:17:17.064Z,141.33
2024-05-09T04:17:50.271Z,166.33
2024-05-09T04:18:20.944Z,202.33
2024-05-09T04:18:51.638Z,196.00
2024-05-09T04:19:22.340Z,173.33
2024-05-09T04:19:53.012Z,155.33
2024-05-09T04:20:33.784Z,147.67
2024-05-09T04:21:09.233Z,190.33
2024-05-09T04:21:39.847Z,247.33
2024-05-09T04:22:10.503Z,285.33
2024-05-09T04:22:41.060Z,288.00
2024-05-09T04:23:13.654Z,300.33
2024-05-09T04:23:44.780Z,352.67
2024-05-09T04:24:15.365Z,308.33
2024-05-09T04:24:47.583Z,259.33
2024-05-09T04:25:18.141Z,230.33
2024-05-09T04:25:52.358Z,254.33
2024-05-09T04:26:24.572Z,293.67
2024-05-09T04:26:55.140Z,286.33
2024-05-09T04:27:25.680Z,269.00
2024-05-09T04:27:56.282Z,270.67
2024-05-09T04:28:28.445Z,246.00
2024-05-09T04:28:59.075Z,237.00
2024-05-09T04:29:29.801Z,252.67
2024-05-09T04:30:00.501Z,260.67
2024-05-09T04:30:37.791Z,244.00
2024-05-09T04:31:11.090Z,208.00
2024-05-09T04:31:41.650Z,190.67
2024-05-09T04:32:13.686Z,207.00
2024-05-09T04:32:44.521Z,206.67
2024-05-09T04:33:15.751Z,181.33
2024-05-09T04:33:47.942Z,156.67
2024-05-09T04:34:19.088Z,189.67
2024-05-09T04:34:49.835Z,237.33
2024-05-09T04:35:21.477Z,247.67
2024-05-09T04:35:53.346Z,247.00
2024-05-09T04:36:23.907Z,245.33
2024-05-09T04:36:54.436Z,344.00
2024-05-09T04:37:25.249Z,366.67
2024-05-09T04:37:55.842Z,369.67
2024-05-09T04:38:28.549Z,322.00
2024-05-09T04:39:01.712Z,323.00
2024-05-09T04:39:34.342Z,405.00
2024-05-09T04:40:06.988Z,465.33
2024-05-09T04:40:39.581Z,444.00
2024-05-09T04:41:10.218Z,351.33
2024-05-09T04:41:41.777Z,302.00
2024-05-09T04:42:12.305Z,248.67
2024-05-09T04:42:44.326Z,217.67
2024-05-09T04:43:17.636Z,222.67
2024-05-09T04:43:49.813Z,217.00
2024-05-09T04:44:20.435Z,222.67
2024-05-09T04:44:50.978Z,219.33
2024-05-09T04:45:21.872Z,224.67
2024-05-09T04:45:52.573Z,210.33
2024-05-09T04:46:23.092Z,206.33
2024-05-09T04:46:56.436Z,191.33
2024-05-09T04:47:27.109Z,218.33
2024-05-09T04:47:59.999Z,201.67
2024-05-09T04:48:30.966Z,279.67
2024-05-09T04:49:02.678Z,344.33
2024-05-09T04:49:33.382Z,313.33
2024-05-09T04:50:05.621Z,281.33
2024-05-09T04:50:38.877Z,242.67
2024-05-09T04:51:10.423Z,229.33
2024-05-09T04:51:41.126Z,220.67
2024-05-09T04:52:11.675Z,210.00
2024-05-09T04:52:42.190Z,187.00
2024-05-09T04:53:17.502Z,171.00
2024-05-09T04:53:48.638Z,160.67
2024-05-09T04:54:54.802Z,173.67
2024-05-09T04:55:27.167Z,190.67
2024-05-09T04:55:58.136Z,174.33
2024-05-09T04:56:28.781Z,198.33
2024-05-09T04:56:59.370Z,191.67
2024-05-09T04:57:29.893Z,200.67
2024-05-09T04:58:00.638Z,209.00
2024-05-09T04:58:31.186Z,181.67
2024-05-09T04:59:01.770Z,201.67
2024-05-09T04:59:32.414Z,214.67
2024-05-09T05:00:09.325Z,231.33
2024-05-09T05:00:44.654Z,212.33
2024-05-09T05:01:15.242Z,167.33
2024-05-09T05:01:46.057Z,144.67
2024-05-09T05:02:16.761Z,139.33
2024-05-09T05:02:47.573Z,147.33
2024-05-09T05:03:18.581Z,165.00
2024-05-09T05:03:49.444Z,181.67
2024-05-09T05:04:20.178Z,186.00
2024-05-09T05:04:50.856Z,189.00
2024-05-09T05:05:21.631Z,183.33
2024-05-09T05:05:52.270Z,174.00
2024-05-09T05:06:23.202Z,182.67
2024-05-09T05:06:53.741Z,179.00
2024-05-09T05:07:24.267Z,157.67
2024-05-09T05:07:54.808Z,152.00
2024-05-09T05:08:25.353Z,135.00
2024-05-09T05:08:55.896Z,106.00
2024-05-09T05:09:26.435Z,98.00
2024-05-09T05:09:56.982Z,93.00
2024-05-09T05:10:33.658Z,84.67
2024-05-09T05:11:06.912Z,88.00
2024-05-09T05:11:37.611Z,94.67
2024-05-09T05:12:29.586Z,96.67
2024-05-09T05:13:21.821Z,104.00
2024-05-09T05:13:53.321Z,106.00
2024-05-09T05:14:23.956Z,96.67
2024-05-09T05:14:54.671Z,115.00
2024-05-09T05:15:25.214Z,109.00
2024-05-09T05:15:56.777Z,93.67
2024-05-09T05:16:28.511Z,83.67
2024-05-09T05:16:59.119Z,107.33
2024-05-09T05:17:30.881Z,136.67
2024-05-09T05:18:01.718Z,159.67
2024-05-09T05:18:34.003Z,191.33
2024-05-09T05:19:07.150Z,186.33
2024-05-09T05:19:39.685Z,163.00
2024-05-09T05:20:15.068Z,161.33
2024-05-09T05:20:46.270Z,157.33
2024-05-09T05:21:16.904Z,156.00
2024-05-09T05:21:47.426Z,153.00
2024-05-09T05:22:17.954Z,146.00
2024-05-09T05:22:48.526Z,140.00
2024-05-09T05:23:19.875Z,127.00
2024-05-09T05:23:50.686Z,116.00
2024-05-09T05:24:22.804Z,111.33
2024-05-09T05:24:53.322Z,117.33
2024-05-09T05:25:24.443Z,122.33
2024-05-09T05:25:56.464Z,126.00
2024-05-09T05:26:35.242Z,129.00
2024-05-09T05:27:07.389Z,128.67
2024-05-09T05:27:39.573Z,127.67
2024-05-09T05:28:10.174Z,128.33
2024-05-09T05:28:40.923Z,127.00
2024-05-09T05:29:14.222Z,126.67
2024-05-09T05:29:45.254Z,127.00
2024-05-09T05:30:21.272Z,124.00
2024-05-09T05:30:55.903Z,121.33
2024-05-09T05:31:26.488Z,120.00
2024-05-09T05:31:57.151Z,120.33
2024-05-09T05:32:27.922Z,121.00
2024-05-09T05:32:58.659Z,120.00
2024-05-09T05:33:29.392Z,116.00
2024-05-09T05:34:00.162Z,113.33
2024-05-09T05:34:30.739Z,114.00
2024-05-09T05:35:01.430Z,114.33
2024-05-09T05:35:33.530Z,116.33
2024-05-09T05:36:05.306Z,118.33
2024-05-09T05:36:44.839Z,121.33
2024-05-09T05:37:31.805Z,122.33
2024-05-09T05:38:03.100Z,124.00
2024-05-09T05:38:40.542Z,127.00
2024-05-09T05:40:11.948Z,128.00
2024-05-09T05:40:45.528Z,129.33
2024-05-09T05:41:16.182Z,132.67
2024-05-09T05:41:46.731Z,135.00
2024-05-09T05:42:17.648Z,136.00
2024-05-09T05:42:51.856Z,136.00
2024-05-09T05:43:23.077Z,136.00
2024-05-09T05:43:53.690Z,139.00
2024-05-09T05:44:25.367Z,140.00
2024-05-09T05:45:00.479Z,139.33
2024-05-09T05:45:31.851Z,135.33
2024-05-09T05:46:02.403Z,120.33
2024-05-09T05:46:32.920Z,118.00
2024-05-09T05:47:03.668Z,133.33
2024-05-09T05:47:35.667Z,147.67
2024-05-09T05:48:07.212Z,144.33
2024-05-09T05:48:38.692Z,159.00
2024-05-09T05:49:11.079Z,153.67
2024-05-09T05:49:42.758Z,147.33
2024-05-09T05:50:24.403Z,129.33
2024-05-09T05:51:04.867Z,103.67
2024-05-09T05:51:35.867Z,91.67
2024-05-09T05:52:06.392Z,87.00
2024-05-09T05:52:37.955Z,78.67
2024-05-09T05:53:09.747Z,75.00
2024-05-09T05:53:41.130Z,77.67
2024-05-09T05:54:12.473Z,91.67
2024-05-09T05:54:43.073Z,97.00
2024-05-09T05:55:13.611Z,97.33
2024-05-09T05:55:44.228Z,92.00
2024-05-09T05:56:14.989Z,85.33
2024-05-09T05:56:45.630Z,84.00
2024-05-09T05:57:16.779Z,84.00
2024-05-09T05:57:47.361Z,87.67
2024-05-09T05:58:19.144Z,93.00
2024-05-09T05:58:50.327Z,138.00
2024-05-09T05:59:22.869Z,336.33
2024-05-09T05:59:53.457Z,451.00
2024-05-09T06:00:29.641Z,476.67
2024-05-09T06:01:07.778Z,454.00
2024-05-09T06:01:38.393Z,408.67
2024-05-09T06:02:10.093Z,365.00
2024-05-09T06:02:40.990Z,338.00
2024-05-09T06:03:12.821Z,318.33
2024-05-09T06:03:44.116Z,310.67
2024-05-09T06:04:15.204Z,284.00
2024-05-09T06:04:45.871Z,264.33
2024-05-09T06:05:16.475Z,252.67
2024-05-09T06:05:48.121Z,247.67
2024-05-09T06:06:18.690Z,242.00
2024-05-09T06:06:49.217Z,236.33
2024-05-09T06:07:19.754Z,226.67
2024-05-09T06:07:50.323Z,223.00
2024-05-09T06:08:20.952Z,208.67
2024-05-09T06:08:51.757Z,183.33
2024-05-09T06:09:23.742Z,159.33
2024-05-09T06:09:55.806Z,151.00
2024-05-09T06:10:34.904Z,149.00
2024-05-09T06:11:09.606Z,138.67
2024-05-09T06:11:42.265Z,151.67
2024-05-09T06:12:13.017Z,171.67
2024-05-09T06:12:43.647Z,171.67
2024-05-09T06:13:14.699Z,154.33
2024-05-09T06:13:45.372Z,134.67
2024-05-09T06:14:16.057Z,112.67
2024-05-09T06:14:46.587Z,100.00
2024-05-09T06:15:17.110Z,98.33
2024-05-09T06:15:47.630Z,100.67
2024-05-09T06:16:18.145Z,100.00
2024-05-09T06:16:48.690Z,100.33
2024-05-09T06:17:19.391Z,97.67
2024-05-09T06:17:50.152Z,93.33
2024-05-09T06:18:21.079Z,92.00
2024-05-09T06:18:51.979Z,93.67
2024-05-09T06:19:22.829Z,111.67
2024-05-09T06:19:53.921Z,131.33
2024-05-09T06:20:34.013Z,132.00
2024-05-09T06:21:07.200Z,118.33
2024-05-09T06:21:37.767Z,111.33
2024-05-09T06:22:09.904Z,104.67
2024-05-09T06:22:40.421Z,96.00
2024-05-09T06:23:11.090Z,87.33
2024-05-09T06:23:46.801Z,87.00
2024-05-09T06:24:17.344Z,89.67
2024-05-09T06:24:47.976Z,86.67
2024-05-09T06:25:18.504Z,85.00
2024-05-09T06:25:49.118Z,102.00
2024-05-09T06:26:19.766Z,107.00
2024-05-09T06:26:50.323Z,109.33
2024-05-09T06:27:21.239Z,92.33
2024-05-09T06:27:51.822Z,71.00
2024-05-09T06:28:23.365Z,66.67
2024-05-09T06:28:54.994Z,64.67
2024-05-09T06:29:35.291Z,78.67
2024-05-09T06:30:09.978Z,88.00
2024-05-09T06:30:43.513Z,84.33
2024-05-09T06:31:14.114Z,88.33
2024-05-09T06:31:45.230Z,91.67
2024-05-09T06:32:15.898Z,92.67
2024-05-09T06:32:46.658Z,93.67
2024-05-09T06:33:17.707Z,95.00
2024-05-09T06:33:48.741Z,93.33
2024-05-09T06:34:19.721Z,162.67
2024-05-09T06:34:50.414Z,238.67
2024-05-09T06:35:21.054Z,178.67
2024-05-09T06:35:58.054Z,181.67
2024-05-09T06:36:28.602Z,350.67
2024-05-09T06:37:00.509Z,412.33
2024-05-09T06:37:31.055Z,375.67
2024-05-09T06:38:02.138Z,302.33
2024-05-09T06:38:34.149Z,254.67
2024-05-09T06:39:04.813Z,217.00
2024-05-09T06:39:35.343Z,197.67
2024-05-09T06:40:07.482Z,169.00
2024-05-09T06:40:40.331Z,142.67
2024-05-09T06:41:12.911Z,125.33
2024-05-09T06:41:43.542Z,105.67
2024-05-09T06:42:14.102Z,92.00
2024-05-09T06:42:44.990Z,84.33
2024-05-09T06:43:31.407Z,90.00
2024-05-09T06:44:02.066Z,90.00
2024-05-09T06:44:32.719Z,91.33
2024-05-09T06:45:03.574Z,96.67
2024-05-09T06:45:34.516Z,91.33
2024-05-09T06:46:05.252Z,83.67
2024-05-09T06:46:39.075Z,77.00